Time;durP1;ratioP1;P1;durP2;ratioP2;P2;SDS_P1;SDS_P2;PMS_P1;PMS_P2;Temp;Humidity;BMP_temperature;BMP_pressure;BME280_temperature;BME280_humidity;BME280_pressure;Samples;Min_cycle;Max_cycle;Signal;HPM_P1;HPM_P2
2022/01/21 00:01:37;;;;;;;11.27;2.37;;;2.90;99.90;;;;;;5097981;28;20338;-80
2022/01/21 00:04:06;;;;;;;12.30;2.37;;;2.90;99.90;;;;;;5063986;28;20196;-80
2022/01/21 00:06:33;;;;;;;4.83;1.67;;;3.00;99.90;;;;;;5087804;28;20687;-80
2022/01/21 00:09:00;;;;;;;10.13;2.03;;;3.00;99.90;;;;;;5096992;28;20663;-80
2022/01/21 00:11:30;;;;;;;5.83;2.10;;;3.10;99.90;;;;;;5090667;28;20292;-80
2022/01/21 00:13:59;;;;;;;4.77;1.60;;;3.10;99.90;;;;;;5088867;28;20317;-80
2022/01/21 00:16:28;;;;;;;10.90;1.97;;;3.10;99.90;;;;;;5091121;28;20650;-80
2022/01/21 00:19:09;;;;;;;10.03;1.37;;;3.10;99.90;;;;;;5098552;28;20263;-80
2022/01/21 00:30:17;;;;;;;7.40;1.80;;;3.00;99.90;;;;;;5091815;28;20313;-81
2022/01/21 00:32:45;;;;;;;8.43;1.90;;;3.00;99.90;;;;;;5070632;28;20227;-80
2022/01/21 00:35:13;;;;;;;8.13;1.90;;;2.90;99.90;;;;;;5072415;28;20674;-80
2022/01/21 00:37:40;;;;;;;13.73;2.03;;;2.80;99.90;;;;;;5090496;28;20292;-79
2022/01/21 00:40:10;;;;;;;6.57;1.60;;;2.70;99.90;;;;;;5081413;28;20206;-78
2022/01/21 00:45:13;;;;;;;13.00;1.90;;;2.60;99.90;;;;;;5093936;28;20238;-79
2022/01/21 00:47:41;;;;;;;7.60;2.00;;;2.50;99.90;;;;;;5082754;28;20234;-79
2022/01/21 00:50:09;;;;;;;7.30;1.60;;;2.40;99.90;;;;;;5095563;28;20253;-79
2022/01/21 00:52:36;;;;;;;7.20;1.93;;;2.40;99.90;;;;;;5091139;28;20231;-79
2022/01/21 00:55:05;;;;;;;10.67;1.90;;;2.30;99.90;;;;;;5090815;28;20227;-79
2022/01/21 00:57:32;;;;;;;13.47;2.00;;;2.20;99.90;;;;;;5085649;28;20294;-79
2022/01/21 00:59:58;;;;;;;5.60;1.67;;;2.20;99.90;;;;;;5095520;28;20255;-79
2022/01/21 01:02:26;;;;;;;10.77;1.63;;;2.20;99.90;;;;;;5090410;28;20216;-79
2022/01/21 01:04:52;;;;;;;11.03;2.60;;;2.10;99.90;;;;;;5086283;28;20336;-79
2022/01/21 01:07:24;;;;;;;6.20;2.30;;;2.20;99.90;;;;;;5099185;28;20200;-79
2022/01/21 01:09:54;;;;;;;9.00;2.63;;;2.20;99.90;;;;;;5075059;28;20250;-80
2022/01/21 01:19:56;;;;;;;10.47;4.03;;;2.30;99.90;;;;;;5091921;28;20851;-80
2022/01/21 01:20:42;;;;;;;14.13;4.97;;;2.50;99.90;;;;;;5084993;28;20220;-80
2022/01/21 01:28:34;;;;;;;12.70;2.20;;;2.70;99.90;;;;;;5096654;28;20638;-80
2022/01/21 01:31:01;;;;;;;10.50;2.20;;;2.80;99.90;;;;;;5091611;28;20209;-80
2022/01/21 01:33:35;;;;;;;7.80;2.17;;;2.80;99.90;;;;;;5092838;28;20752;-79
2022/01/21 01:36:05;;;;;;;12.50;2.60;;;2.80;99.90;;;;;;5087102;28;20242;-78
2022/01/21 01:38:58;;;;;;;10.33;2.20;;;2.80;99.90;;;;;;5088374;28;20672;-78
2022/01/21 01:41:31;;;;;;;9.27;1.90;;;2.80;99.90;;;;;;5096314;28;20285;-78
2022/01/21 01:49:36;;;;;;;9.13;2.17;;;2.90;99.90;;;;;;5093545;28;20190;-80
2022/01/21 01:52:09;;;;;;;7.63;1.80;;;2.80;99.90;;;;;;5095345;28;20363;-80
2022/01/21 01:54:39;;;;;;;10.43;2.10;;;2.90;99.90;;;;;;5089453;28;20265;-79
2022/01/21 01:57:08;;;;;;;6.33;1.53;;;2.90;99.90;;;;;;5090271;28;20644;-79
2022/01/21 01:59:35;;;;;;;8.20;2.97;;;2.80;99.90;;;;;;5095552;28;20292;-79
2022/01/21 02:02:09;;;;;;;8.17;2.40;;;2.80;99.90;;;;;;5089827;28;20231;-79
2022/01/21 02:04:36;;;;;;;9.60;3.20;;;2.80;99.90;;;;;;5091059;28;20206;-78
2022/01/21 02:07:03;;;;;;;9.53;2.13;;;2.80;99.90;;;;;;5095651;28;20216;-79
2022/01/21 02:09:30;;;;;;;9.63;2.13;;;2.80;99.90;;;;;;5089187;28;20212;-78
2022/01/21 02:11:59;;;;;;;8.80;1.90;;;2.80;99.90;;;;;;5087355;28;20201;-78
2022/01/21 02:14:30;;;;;;;8.80;2.00;;;2.80;99.90;;;;;;5077258;28;20231;-78
2022/01/21 02:22:18;;;;;;;13.97;2.50;;;2.60;99.90;;;;;;5095307;28;20331;-79
2022/01/21 02:24:49;;;;;;;9.53;1.97;;;2.60;99.90;;;;;;5094282;28;20201;-78
2022/01/21 02:27:16;;;;;;;8.27;1.83;;;2.60;99.90;;;;;;5095334;28;20224;-80
2022/01/21 02:29:48;;;;;;;7.53;2.00;;;2.60;99.90;;;;;;5086318;28;20656;-78
2022/01/21 02:32:17;;;;;;;5.93;1.60;;;2.60;99.90;;;;;;5089315;28;20311;-79
2022/01/21 02:34:46;;;;;;;16.17;2.43;;;2.60;99.90;;;;;;5091429;28;20698;-79
2022/01/21 02:37:15;;;;;;;11.20;2.30;;;2.60;99.90;;;;;;5089036;28;20209;-78
2022/01/21 02:39:43;;;;;;;7.60;1.80;;;2.60;99.90;;;;;;5095426;28;20222;-79
2022/01/21 02:42:10;;;;;;;11.20;2.77;;;2.60;99.90;;;;;;5088109;28;20882;-79
2022/01/21 02:44:39;;;;;;;8.60;2.27;;;2.70;99.90;;;;;;5061949;28;20782;-79
2022/01/21 02:47:09;;;;;;;9.30;1.80;;;2.70;99.90;;;;;;5067607;28;20226;-80
2022/01/21 02:49:36;;;;;;;9.07;2.77;;;2.70;99.90;;;;;;5065913;28;20207;-79
2022/01/21 02:52:04;;;;;;;13.00;2.57;;;2.80;99.90;;;;;;5059770;28;20214;-79
2022/01/21 02:54:33;;;;;;;13.33;3.30;;;2.80;99.90;;;;;;5069405;28;20235;-80
2022/01/21 02:57:07;;;;;;;13.03;2.77;;;2.80;99.90;;;;;;5075223;28;20209;-79
2022/01/21 02:59:34;;;;;;;6.27;2.33;;;2.80;99.90;;;;;;5064926;28;20688;-79
2022/01/21 03:02:01;;;;;;;11.87;2.47;;;2.90;99.90;;;;;;5073891;28;20227;-79
2022/01/21 03:04:38;;;;;;;5.37;2.13;;;2.80;99.90;;;;;;5074473;28;20211;-79
2022/01/21 03:07:05;;;;;;;11.90;2.50;;;2.90;99.90;;;;;;5070521;28;20559;-79
2022/01/21 03:09:32;;;;;;;9.10;2.10;;;2.80;99.90;;;;;;5046686;28;20212;-79
2022/01/21 03:11:59;;;;;;;8.60;1.90;;;2.80;99.90;;;;;;5065938;28;20293;-79
2022/01/21 03:14:26;;;;;;;5.90;1.70;;;2.80;99.90;;;;;;5073409;28;20714;-79
2022/01/21 03:16:53;;;;;;;8.60;1.50;;;2.80;99.90;;;;;;5055890;28;20226;-79
2022/01/21 03:19:20;;;;;;;2.97;1.70;;;2.80;99.90;;;;;;5071394;28;20610;-79
2022/01/21 03:21:48;;;;;;;10.30;1.60;;;2.80;99.90;;;;;;5070287;28;21009;-79
2022/01/21 03:24:15;;;;;;;7.57;1.50;;;2.80;99.90;;;;;;5069982;28;20237;-79
2022/01/21 03:26:41;;;;;;;6.07;1.70;;;2.80;99.90;;;;;;5066495;28;20216;-79
2022/01/21 03:29:08;;;;;;;6.40;1.90;;;2.70;99.90;;;;;;5069930;28;20212;-78
2022/01/21 03:31:35;;;;;;;7.33;1.53;;;2.70;99.90;;;;;;5062133;28;20838;-80
2022/01/21 03:34:03;;;;;;;8.17;1.67;;;2.60;99.90;;;;;;5061915;28;20230;-78
2022/01/21 03:36:30;;;;;;;10.33;2.27;;;2.60;99.90;;;;;;5070152;28;20214;-78
2022/01/21 03:38:57;;;;;;;8.47;1.93;;;2.60;99.90;;;;;;5070053;28;20295;-79
2022/01/21 03:41:24;;;;;;;14.33;2.47;;;2.50;99.90;;;;;;5067181;28;20206;-78
2022/01/21 03:43:51;;;;;;;14.97;4.27;;;2.40;99.90;;;;;;5084495;28;20237;-78
2022/01/21 03:46:18;;;;;;;12.67;4.33;;;2.40;99.90;;;;;;5092488;28;20659;-79
2022/01/21 03:48:48;;;;;;;7.50;3.50;;;2.30;99.90;;;;;;5075363;28;20706;-79
2022/01/21 03:51:19;;;;;;;11.03;2.93;;;2.30;99.90;;;;;;5090570;28;20292;-78
2022/01/21 03:53:46;;;;;;;7.30;2.33;;;2.20;99.90;;;;;;5091365;28;20708;-80
2022/01/21 03:56:14;;;;;;;12.70;2.47;;;2.20;99.90;;;;;;5091363;28;20249;-78
2022/01/21 03:58:42;;;;;;;6.40;1.73;;;2.10;99.90;;;;;;5090476;28;20294;-78
2022/01/21 04:01:09;;;;;;;6.93;1.90;;;2.10;99.90;;;;;;5095668;28;20291;-78
2022/01/21 04:03:36;;;;;;;5.33;2.03;;;2.10;99.90;;;;;;5094527;28;20583;-78
2022/01/21 04:06:03;;;;;;;13.30;2.20;;;2.10;99.90;;;;;;5084964;28;20218;-78
2022/01/21 04:08:30;;;;;;;9.53;2.30;;;2.00;99.90;;;;;;5089112;28;20523;-80
2022/01/21 04:10:57;;;;;;;15.37;2.30;;;2.10;99.90;;;;;;5090594;28;20210;-81
2022/01/21 04:13:26;;;;;;;13.40;2.57;;;2.10;99.90;;;;;;5067356;28;20314;-80
2022/01/21 04:15:55;;;;;;;7.60;2.00;;;2.10;99.90;;;;;;5088954;28;20239;-79
2022/01/21 04:18:23;;;;;;;11.27;2.03;;;2.10;99.90;;;;;;5089834;28;20223;-80
2022/01/21 04:20:52;;;;;;;16.60;2.23;;;2.20;99.90;;;;;;5089397;28;20209;-77
2022/01/21 04:23:21;;;;;;;9.50;2.37;;;2.20;99.90;;;;;;5089949;28;20207;-78
2022/01/21 04:25:48;;;;;;;13.17;2.20;;;2.20;99.90;;;;;;5085345;28;20318;-78
2022/01/21 04:28:15;;;;;;;9.87;2.23;;;2.20;99.90;;;;;;5089851;28;20200;-79
2022/01/21 04:30:42;;;;;;;9.93;2.00;;;2.30;99.90;;;;;;5084411;28;20252;-78
2022/01/21 04:33:09;;;;;;;10.87;2.00;;;2.30;99.90;;;;;;5082716;28;20225;-80
2022/01/21 04:35:36;;;;;;;7.97;1.87;;;2.30;99.90;;;;;;5078734;28;20206;-80
2022/01/21 04:38:07;;;;;;;13.40;2.17;;;2.30;99.90;;;;;;5084001;28;20200;-79
2022/01/21 04:40:43;;;;;;;18.60;2.17;;;2.30;99.90;;;;;;5081914;28;20217;-78
2022/01/21 04:48:41;;;;;;;6.63;2.00;;;2.20;99.90;;;;;;5080077;28;20410;-80
2022/01/21 04:51:21;;;;;;;9.07;1.67;;;2.20;99.90;;;;;;5090326;28;20814;-78
2022/01/21 04:53:48;;;;;;;10.67;2.30;;;2.20;99.90;;;;;;5087025;28;20355;-80
2022/01/21 04:56:15;;;;;;;6.43;2.57;;;2.20;99.90;;;;;;5066196;28;20653;-79
2022/01/21 04:58:43;;;;;;;11.23;2.43;;;2.20;99.90;;;;;;5083960;28;20251;-79
2022/01/21 05:01:11;;;;;;;12.57;1.70;;;2.20;99.90;;;;;;5088923;28;20789;-79
2022/01/21 05:03:41;;;;;;;9.30;1.93;;;2.20;99.90;;;;;;5087877;28;20219;-79
2022/01/21 05:06:09;;;;;;;7.53;1.93;;;2.20;99.90;;;;;;5082550;28;20240;-79
2022/01/21 05:08:45;;;;;;;11.27;2.00;;;2.10;99.90;;;;;;5100553;28;20629;-79
2022/01/21 05:11:14;;;;;;;5.83;1.53;;;2.10;99.90;;;;;;5098252;28;20209;-79
2022/01/21 05:13:44;;;;;;;12.43;2.00;;;2.20;99.90;;;;;;5093546;28;20216;-79
2022/01/21 05:16:30;;;;;;;11.30;2.00;;;2.20;99.90;;;;;;5095221;28;20238;-79
2022/01/21 05:19:01;;;;;;;8.33;1.77;;;2.10;99.90;;;;;;5097340;28;20269;-79
2022/01/21 05:21:28;;;;;;;9.67;1.93;;;2.10;99.90;;;;;;5089582;28;20307;-79
2022/01/21 05:23:54;;;;;;;10.73;2.50;;;2.10;99.90;;;;;;5092556;28;20196;-79
2022/01/21 05:26:21;;;;;;;9.67;1.90;;;2.00;99.90;;;;;;5083084;28;20559;-79
2022/01/21 05:28:48;;;;;;;7.03;1.70;;;2.10;99.90;;;;;;5095823;28;20311;-79
2022/01/21 05:31:15;;;;;;;10.53;1.83;;;2.10;99.90;;;;;;5093680;28;20902;-80
2022/01/21 05:33:41;;;;;;;7.67;1.67;;;2.10;99.90;;;;;;5092134;28;20247;-79
2022/01/21 05:36:08;;;;;;;8.70;1.60;;;2.10;99.90;;;;;;5089630;28;20215;-79
2022/01/21 05:38:35;;;;;;;4.87;1.90;;;2.10;99.90;;;;;;5073944;28;20216;-79
2022/01/21 05:41:02;;;;;;;6.67;1.70;;;2.10;99.90;;;;;;5094444;28;20232;-79
2022/01/21 05:43:29;;;;;;;7.40;1.73;;;2.10;99.90;;;;;;5090565;28;20227;-80
2022/01/21 05:48:41;;;;;;;9.00;2.00;;;2.10;99.90;;;;;;5088009;28;20223;-76
2022/01/21 05:51:08;;;;;;;7.23;1.57;;;2.10;99.90;;;;;;5096825;28;20695;-77
2022/01/21 05:53:34;;;;;;;12.77;1.80;;;2.10;99.90;;;;;;5092748;28;20211;-79
2022/01/21 05:56:02;;;;;;;11.50;1.90;;;2.00;99.90;;;;;;5094994;28;20241;-79
2022/01/21 05:58:29;;;;;;;9.20;2.00;;;2.00;99.90;;;;;;5077300;28;20239;-79
2022/01/21 06:00:56;;;;;;;4.57;1.43;;;2.00;99.90;;;;;;5093936;28;20226;-80
2022/01/21 06:03:24;;;;;;;9.67;1.80;;;2.00;99.90;;;;;;5091815;28;20223;-79
2022/01/21 06:05:51;;;;;;;6.73;2.23;;;1.90;99.90;;;;;;5089288;28;20243;-79
2022/01/21 06:08:18;;;;;;;6.93;1.50;;;1.90;99.90;;;;;;5086401;28;20470;-80
2022/01/21 06:10:45;;;;;;;15.83;2.13;;;1.90;99.90;;;;;;5080445;28;20192;-79
2022/01/21 06:13:15;;;;;;;11.37;1.63;;;1.90;99.90;;;;;;5093025;28;20204;-80
2022/01/21 06:15:43;;;;;;;11.77;1.90;;;1.80;99.90;;;;;;5090220;28;20223;-80
2022/01/21 06:18:10;;;;;;;10.33;1.97;;;1.90;99.90;;;;;;5086651;28;20320;-79
2022/01/21 06:20:37;;;;;;;4.77;1.47;;;1.90;99.90;;;;;;5086485;28;20287;-79
2022/01/21 06:23:04;;;;;;;3.23;1.53;;;1.80;99.90;;;;;;5096687;28;20648;-81
2022/01/21 06:25:31;;;;;;;7.17;1.77;;;1.80;99.90;;;;;;5092753;28;20323;-80
2022/01/21 06:27:58;;;;;;;13.87;2.50;;;1.80;99.90;;;;;;5096075;28;20230;-79
2022/01/21 06:30:25;;;;;;;8.27;1.70;;;1.80;99.90;;;;;;5080033;28;20216;-79
2022/01/21 06:32:52;;;;;;;8.97;1.87;;;1.80;99.90;;;;;;5088929;28;20226;-79
2022/01/21 06:35:18;;;;;;;5.80;1.73;;;1.80;99.90;;;;;;5083553;28;20668;-79
2022/01/21 06:37:45;;;;;;;10.03;1.77;;;1.80;99.90;;;;;;5086986;28;20200;-79
2022/01/21 06:40:14;;;;;;;15.70;1.83;;;1.80;99.90;;;;;;5090208;28;20231;-80
2022/01/21 06:42:41;;;;;;;6.63;1.50;;;1.80;99.90;;;;;;5089706;28;20271;-80
2022/01/21 06:45:08;;;;;;;9.33;1.90;;;1.80;99.90;;;;;;5085487;28;20198;-80
2022/01/21 06:47:35;;;;;;;9.83;1.80;;;1.80;99.90;;;;;;5089254;28;20217;-80
2022/01/21 06:50:02;;;;;;;9.37;2.00;;;1.80;99.90;;;;;;5073817;28;20203;-81
2022/01/21 06:52:30;;;;;;;9.47;1.83;;;1.80;99.90;;;;;;5090819;28;20203;-80
2022/01/21 06:54:58;;;;;;;3.57;1.73;;;1.80;99.90;;;;;;5095081;28;20232;-80
2022/01/21 06:57:27;;;;;;;9.47;2.17;;;1.90;99.90;;;;;;5097051;28;20203;-80
2022/01/21 06:59:54;;;;;;;15.37;2.57;;;2.00;99.90;;;;;;5091787;28;20217;-80
2022/01/21 07:02:21;;;;;;;11.87;2.50;;;2.00;99.90;;;;;;5076770;28;20240;-80
2022/01/21 07:04:49;;;;;;;17.20;4.57;;;2.00;99.90;;;;;;5090688;28;20208;-81
2022/01/21 07:07:20;;;;;;;21.27;6.63;;;2.10;99.90;;;;;;5095487;28;20209;-80
2022/01/21 07:09:46;;;;;;;20.67;6.97;;;2.20;99.90;;;;;;5092854;28;20212;-80
2022/01/21 07:12:13;;;;;;;22.43;7.30;;;2.20;99.90;;;;;;5098090;28;20217;-80
2022/01/21 07:14:40;;;;;;;15.40;4.80;;;2.30;99.90;;;;;;5089697;28;20353;-79
2022/01/21 07:17:07;;;;;;;10.20;2.53;;;2.40;99.90;;;;;;5079320;28;20311;-80
2022/01/21 07:19:34;;;;;;;12.13;3.07;;;2.50;99.90;;;;;;5074575;28;20208;-80
2022/01/21 07:22:00;;;;;;;9.20;2.03;;;2.50;99.90;;;;;;5095281;28;20252;-82
2022/01/21 07:24:27;;;;;;;7.83;2.30;;;2.60;99.90;;;;;;5090051;28;20868;-80
2022/01/21 07:26:54;;;;;;;8.07;2.33;;;2.60;99.90;;;;;;5083496;28;20297;-79
2022/01/21 07:29:21;;;;;;;15.60;2.73;;;2.70;99.90;;;;;;5093689;28;20201;-80
2022/01/21 07:31:53;;;;;;;8.43;2.17;;;2.70;99.90;;;;;;5090706;28;20231;-80
2022/01/21 07:34:21;;;;;;;8.07;2.50;;;2.70;99.90;;;;;;5083632;28;20321;-81
2022/01/21 07:36:48;;;;;;;5.70;2.20;;;2.70;99.90;;;;;;5089183;28;20521;-80
2022/01/21 07:39:15;;;;;;;12.33;2.13;;;2.70;99.90;;;;;;5095701;28;20297;-80
2022/01/21 07:41:41;;;;;;;15.20;2.20;;;2.60;99.90;;;;;;5089302;28;20581;-80
2022/01/21 07:44:09;;;;;;;9.07;2.23;;;2.60;99.90;;;;;;5099441;28;20396;-80
2022/01/21 07:46:36;;;;;;;9.80;2.20;;;2.60;99.90;;;;;;5082890;28;20541;-79
2022/01/21 07:49:03;;;;;;;9.33;2.30;;;2.50;99.90;;;;;;5090366;28;20260;-80
2022/01/21 07:51:30;;;;;;;8.87;2.63;;;2.50;99.90;;;;;;5088347;28;20204;-80
2022/01/21 07:53:57;;;;;;;16.67;3.77;;;2.50;99.90;;;;;;5088072;28;20207;-80
2022/01/21 07:56:23;;;;;;;7.87;3.07;;;2.40;99.90;;;;;;5093689;28;20224;-80
2022/01/21 07:58:51;;;;;;;11.80;4.60;;;2.40;99.90;;;;;;5093421;28;20569;-79
2022/01/21 08:01:19;;;;;;;12.00;5.00;;;2.40;99.90;;;;;;5086293;28;20619;-80
2022/01/21 08:03:46;;;;;;;14.47;6.43;;;2.40;99.90;;;;;;5090951;28;20221;-80
2022/01/21 08:06:13;;;;;;;17.10;7.07;;;2.40;99.90;;;;;;5092687;28;20207;-80
2022/01/21 08:08:40;;;;;;;17.90;5.77;;;2.40;99.90;;;;;;5072834;28;20236;-80
2022/01/21 08:11:08;;;;;;;15.00;4.10;;;2.40;99.90;;;;;;5091541;28;20206;-80
2022/01/21 08:13:35;;;;;;;14.40;4.20;;;2.40;99.90;;;;;;5094341;28;20210;-82
2022/01/21 08:16:02;;;;;;;16.00;4.27;;;2.40;99.90;;;;;;5082616;28;20224;-80
2022/01/21 08:18:28;;;;;;;15.93;4.63;;;2.40;99.90;;;;;;5094505;28;20309;-83
2022/01/21 08:20:55;;;;;;;19.17;7.27;;;2.40;99.90;;;;;;5095888;28;20292;-79
2022/01/21 08:23:22;;;;;;;24.23;9.57;;;2.40;99.90;;;;;;5083302;28;20219;-79
2022/01/21 08:25:49;;;;;;;16.70;4.20;;;2.40;99.90;;;;;;5087213;28;20219;-81
2022/01/21 08:28:16;;;;;;;23.07;6.97;;;2.40;99.90;;;;;;5096950;28;20204;-79
2022/01/21 08:30:42;;;;;;;20.23;5.47;;;2.40;99.90;;;;;;5086181;28;20300;-80
2022/01/21 08:33:09;;;;;;;21.83;7.43;;;2.50;99.90;;;;;;5090185;28;20212;-79
2022/01/21 08:35:36;;;;;;;17.47;6.03;;;2.50;99.90;;;;;;5093516;28;20711;-80
2022/01/21 08:38:04;;;;;;;10.50;3.87;;;2.50;99.90;;;;;;5092821;28;20231;-80
2022/01/21 08:40:31;;;;;;;16.07;5.77;;;2.50;99.90;;;;;;5094179;28;20376;-80
2022/01/21 08:42:58;;;;;;;23.17;9.30;;;2.50;99.90;;;;;;5078930;28;20664;-80
2022/01/21 08:45:25;;;;;;;28.27;10.87;;;2.60;99.90;;;;;;5068626;28;20602;-80
2022/01/21 08:47:52;;;;;;;41.27;17.90;;;2.60;99.90;;;;;;5065381;28;20694;-81
2022/01/21 08:50:20;;;;;;;39.37;15.97;;;2.70;99.90;;;;;;5066787;28;20215;-80
2022/01/21 08:52:49;;;;;;;35.97;13.67;;;2.80;99.90;;;;;;5074631;28;20207;-80
2022/01/21 08:55:19;;;;;;;27.30;9.27;;;2.90;99.90;;;;;;5066841;28;20296;-80
2022/01/21 08:57:47;;;;;;;23.50;7.00;;;3.00;99.90;;;;;;5076063;28;20221;-80
2022/01/21 09:00:19;;;;;;;12.57;3.97;;;3.10;99.90;;;;;;5063806;28;20218;-80
2022/01/21 09:02:46;;;;;;;20.33;5.27;;;3.20;99.90;;;;;;5075081;28;20750;-79
2022/01/21 09:05:14;;;;;;;20.70;5.23;;;3.30;99.90;;;;;;5070907;28;20620;-80
2022/01/21 09:07:41;;;;;;;12.03;3.10;;;3.40;99.90;;;;;;5068286;28;20582;-79
2022/01/21 09:10:09;;;;;;;10.07;3.50;;;3.60;99.90;;;;;;5069933;28;20229;-81
2022/01/21 09:12:36;;;;;;;15.33;3.27;;;3.70;99.90;;;;;;5073261;28;20212;-81
2022/01/21 09:15:05;;;;;;;16.03;3.20;;;3.80;99.90;;;;;;5068879;28;20231;-80
2022/01/21 09:17:35;;;;;;;11.20;2.97;;;3.90;99.90;;;;;;5073802;28;20230;-81
2022/01/21 09:20:03;;;;;;;8.67;3.13;;;4.00;99.90;;;;;;5079595;28;20578;-80
2022/01/21 09:22:29;;;;;;;12.13;3.00;;;4.10;99.90;;;;;;5073845;28;20267;-81
2022/01/21 09:24:56;;;;;;;11.33;2.30;;;4.10;99.90;;;;;;5072848;28;20290;-80
2022/01/21 09:27:22;;;;;;;11.63;2.60;;;4.20;99.90;;;;;;5054764;28;20288;-80
2022/01/21 09:29:49;;;;;;;11.27;3.00;;;4.30;99.90;;;;;;5036330;28;20217;-80
2022/01/21 09:32:17;;;;;;;16.27;2.90;;;4.30;99.90;;;;;;5069652;28;20309;-80
2022/01/21 09:34:44;;;;;;;11.03;2.63;;;4.40;99.90;;;;;;5066385;28;20580;-81
2022/01/21 09:37:11;;;;;;;15.90;3.63;;;4.40;99.90;;;;;;5073871;28;20204;-81
2022/01/21 09:39:38;;;;;;;11.40;2.77;;;4.50;99.90;;;;;;5067557;28;20554;-81
2022/01/21 09:42:06;;;;;;;12.77;2.37;;;4.50;99.90;;;;;;5081850;28;20230;-81
2022/01/21 09:44:34;;;;;;;6.07;2.10;;;4.60;99.90;;;;;;5087179;28;20271;-81
2022/01/21 09:47:03;;;;;;;6.43;2.30;;;4.60;99.90;;;;;;5074154;28;20641;-80
2022/01/21 09:49:30;;;;;;;12.43;2.30;;;4.60;99.90;;;;;;5094475;28;20211;-80
2022/01/21 09:52:02;;;;;;;9.50;2.20;;;4.60;99.90;;;;;;5094117;28;20215;-81
2022/01/21 09:54:32;;;;;;;8.13;2.40;;;4.60;99.90;;;;;;5092967;28;20207;-80
2022/01/21 09:57:00;;;;;;;9.13;2.27;;;4.70;99.90;;;;;;5095673;28;20200;-81
2022/01/21 09:59:30;;;;;;;14.27;2.37;;;4.80;99.90;;;;;;5099307;28;20282;-81
2022/01/21 10:02:04;;;;;;;16.43;3.07;;;4.90;99.90;;;;;;5070203;28;20223;-81
2022/01/21 10:04:35;;;;;;;17.57;3.30;;;5.00;99.90;;;;;;5083192;28;20227;-80
2022/01/21 10:07:03;;;;;;;13.10;3.20;;;5.10;99.90;;;;;;5097701;28;20359;-80
2022/01/21 10:09:31;;;;;;;9.20;3.40;;;5.20;99.90;;;;;;5097201;28;20688;-82
2022/01/21 10:12:01;;;;;;;12.20;3.03;;;5.20;99.90;;;;;;5093595;28;20211;-79
2022/01/21 10:14:29;;;;;;;10.77;2.87;;;5.20;99.90;;;;;;5093961;28;20269;-81
2022/01/21 10:16:58;;;;;;;11.10;2.90;;;5.20;99.90;;;;;;5090379;28;20328;-80
2022/01/21 10:19:31;;;;;;;14.97;3.10;;;5.20;99.90;;;;;;5087771;28;20306;-80
2022/01/21 10:22:09;;;;;;;13.47;2.60;;;5.10;99.90;;;;;;5094112;28;20285;-80
2022/01/21 10:25:00;;;;;;;10.90;3.03;;;5.00;99.90;;;;;;5098055;28;20289;-80
2022/01/21 10:27:38;;;;;;;13.70;2.83;;;5.00;99.90;;;;;;5095150;28;20228;-80
2022/01/21 10:30:25;;;;;;;11.43;2.70;;;5.00;99.90;;;;;;5098828;28;20277;-80
2022/01/21 10:32:52;;;;;;;15.47;2.30;;;5.00;99.90;;;;;;5090766;28;20345;-78
2022/01/21 10:35:36;;;;;;;11.77;2.97;;;5.00;99.90;;;;;;5085378;28;20235;-80
2022/01/21 10:38:14;;;;;;;8.17;2.13;;;5.00;99.90;;;;;;5093534;28;20214;-80
2022/01/21 10:40:41;;;;;;;12.83;2.13;;;5.10;99.90;;;;;;5094823;28;20202;-79
2022/01/21 10:43:13;;;;;;;7.67;1.90;;;5.20;99.90;;;;;;5089954;28;20230;-79
2022/01/21 10:45:53;;;;;;;8.77;3.10;;;5.20;99.90;;;;;;5088481;28;20300;-80
2022/01/21 10:48:20;;;;;;;7.60;1.97;;;5.30;99.90;;;;;;5093435;28;20218;-79
2022/01/21 10:51:13;;;;;;;11.97;2.30;;;5.40;99.90;;;;;;5091256;28;20221;-79
2022/01/21 10:53:43;;;;;;;13.60;2.30;;;5.50;99.90;;;;;;5092508;28;20436;-79
2022/01/21 10:56:13;;;;;;;8.20;2.53;;;5.60;99.90;;;;;;5099449;28;20226;-80
2022/01/21 10:58:41;;;;;;;8.97;2.00;;;5.70;99.90;;;;;;5087994;28;20201;-79
2022/01/21 11:01:17;;;;;;;11.53;1.90;;;5.80;99.90;;;;;;5091703;28;20230;-80
2022/01/21 11:04:11;;;;;;;15.67;2.27;;;5.80;99.90;;;;;;5090816;28;20223;-79
2022/01/21 11:06:50;;;;;;;11.67;2.20;;;5.90;99.90;;;;;;5091382;28;20259;-79
2022/01/21 11:09:22;;;;;;;11.53;2.30;;;6.00;99.90;;;;;;5093150;28;20221;-78
2022/01/21 11:12:10;;;;;;;14.83;2.87;;;6.10;99.90;;;;;;5091914;28;20290;-79
2022/01/21 11:14:58;;;;;;;7.93;2.30;;;6.30;99.90;;;;;;5067135;28;20196;-79
2022/01/21 11:17:25;;;;;;;11.77;2.93;;;6.50;99.90;;;;;;5085404;28;20694;-79
2022/01/21 11:20:16;;;;;;;12.10;2.53;;;6.60;99.90;;;;;;5062158;28;20213;-80
2022/01/21 11:22:58;;;;;;;8.87;2.40;;;6.70;99.90;;;;;;5089270;28;20610;-78
2022/01/21 11:25:43;;;;;;;12.73;2.43;;;6.80;99.90;;;;;;5089047;28;20229;-79
2022/01/21 11:28:15;;;;;;;8.97;1.97;;;6.80;99.90;;;;;;5091362;28;20204;-80
2022/01/21 11:30:43;;;;;;;14.43;2.50;;;6.80;99.90;;;;;;5088430;28;20423;-78
2022/01/21 11:33:10;;;;;;;7.93;2.50;;;6.90;99.90;;;;;;5067575;28;20626;-80
2022/01/21 11:35:38;;;;;;;13.97;2.60;;;6.50;99.90;;;;;;5083818;28;20593;-79
2022/01/21 11:38:07;;;;;;;11.83;3.10;;;7.00;99.90;;;;;;5090969;28;20292;-80
2022/01/21 11:40:34;;;;;;;9.13;2.43;;;7.00;99.90;;;;;;5084030;28;20314;-80
2022/01/21 11:43:03;;;;;;;10.97;2.50;;;7.20;99.90;;;;;;5085327;28;20238;-80
2022/01/21 11:48:50;;;;;;;5.37;2.40;;;7.00;99.90;;;;;;5086097;28;20223;-79
2022/01/21 11:51:31;;;;;;;12.67;2.13;;;7.00;99.90;;;;;;5088977;28;20678;-80
2022/01/21 11:54:05;;;;;;;13.50;2.77;;;7.00;99.90;;;;;;5089610;28;20299;-80
2022/01/21 11:56:48;;;;;;;8.50;2.37;;;7.10;99.90;;;;;;5081290;28;20339;-80
2022/01/21 11:59:19;;;;;;;12.53;2.50;;;7.20;99.90;;;;;;5082963;28;20286;-81
2022/01/21 12:01:47;;;;;;;8.87;2.30;;;7.20;99.90;;;;;;5083278;28;20245;-84
2022/01/21 12:04:41;;;;;;;10.47;2.27;;;7.20;99.90;;;;;;5072776;28;20206;-82
2022/01/21 12:07:34;;;;;;;11.03;2.10;;;7.30;99.90;;;;;;5061639;28;20227;-83
2022/01/21 12:10:05;;;;;;;8.40;2.13;;;7.30;99.90;;;;;;5060080;28;20204;-80
2022/01/21 12:13:07;;;;;;;18.37;2.63;;;7.40;99.90;;;;;;5079537;28;20745;-80
2022/01/21 12:18:55;;;;;;;9.37;3.17;;;7.50;99.90;;;;;;5078096;28;20253;-80
2022/01/21 12:21:33;;;;;;;7.57;2.10;;;7.50;99.90;;;;;;5077975;28;20214;-80
2022/01/21 12:24:00;;;;;;;11.40;2.87;;;7.50;99.90;;;;;;5084585;28;20203;-80
2022/01/21 12:26:29;;;;;;;10.50;2.53;;;7.60;99.90;;;;;;5084077;28;20394;-81
2022/01/21 12:28:58;;;;;;;13.50;2.57;;;7.00;99.90;;;;;;5087245;28;20196;-81
2022/01/21 12:31:50;;;;;;;13.27;3.20;;;;;;;;;;5091209;28;20295;-82
2022/01/21 12:34:18;;;;;;;9.80;2.90;;;7.60;99.90;;;;;;5093093;28;20203;-81
2022/01/21 12:36:54;;;;;;;12.57;2.33;;;7.50;99.90;;;;;;5090063;28;20225;-82
2022/01/21 12:39:41;;;;;;;9.73;2.13;;;7.60;99.90;;;;;;5066645;28;20329;-82
2022/01/21 12:42:25;;;;;;;10.47;2.83;;;7.50;99.90;;;;;;5088236;28;20255;-81
2022/01/21 12:44:57;;;;;;;11.70;3.03;;;7.50;99.90;;;;;;5063026;28;20559;-81
2022/01/21 12:47:35;;;;;;;13.27;2.63;;;7.50;99.90;;;;;;5085105;28;20244;-82
2022/01/21 12:50:15;;;;;;;7.97;3.00;;;7.60;99.90;;;;;;5088852;28;20193;-82
2022/01/21 12:52:47;;;;;;;15.10;2.57;;;7.60;99.90;;;;;;5084936;28;20678;-81
2022/01/21 12:58:26;;;;;;;7.43;2.33;;;7.60;99.90;;;;;;5090958;28;20313;-82
2022/01/21 13:01:01;;;;;;;18.50;2.40;;;7.60;99.90;;;;;;5091740;28;20790;-81
2022/01/21 13:03:37;;;;;;;11.80;2.40;;;7.60;99.90;;;;;;5084933;28;20740;-80
2022/01/21 13:06:19;;;;;;;15.17;2.40;;;7.60;99.90;;;;;;5085083;28;20198;-80
2022/01/21 13:08:52;;;;;;;14.37;2.73;;;7.70;99.90;;;;;;5087390;28;20208;-80
2022/01/21 13:11:24;;;;;;;12.13;2.63;;;7.60;99.90;;;;;;5085423;28;20200;-80
2022/01/21 13:14:23;;;;;;;11.50;3.27;;;7.60;99.90;;;;;;5068515;28;20287;-81
2022/01/21 13:17:00;;;;;;;10.63;2.73;;;7.70;99.90;;;;;;5080992;28;20301;-82
2022/01/21 13:19:29;;;;;;;7.53;2.00;;;7.70;99.90;;;;;;5091749;28;20206;-80
2022/01/21 13:21:56;;;;;;;9.20;2.47;;;7.70;99.90;;;;;;5089246;28;20286;-80
2022/01/21 13:26:53;;;;;;;18.53;3.00;;;7.80;99.90;;;;;;5101488;28;20291;-79
2022/01/21 13:29:37;;;;;;;16.43;2.27;;;7.70;99.90;;;;;;5089725;28;20603;-80
2022/01/21 13:32:05;;;;;;;15.87;2.50;;;7.70;99.90;;;;;;5074071;28;20242;-79
2022/01/21 13:34:39;;;;;;;15.83;2.50;;;7.70;99.90;;;;;;5073932;28;20207;-80
2022/01/21 13:37:08;;;;;;;6.87;2.40;;;7.70;99.90;;;;;;5088104;28;20706;-80
2022/01/21 13:39:41;;;;;;;11.13;2.13;;;7.60;99.90;;;;;;5086423;28;20511;-81
2022/01/21 13:42:10;;;;;;;10.27;2.40;;;7.80;99.90;;;;;;5070293;28;20253;-80
2022/01/21 13:44:55;;;;;;;8.83;2.80;;;7.60;99.90;;;;;;5091346;28;20203;-81
2022/01/21 13:47:39;;;;;;;10.87;2.20;;;7.70;99.90;;;;;;5084473;28;20212;-80
2022/01/21 13:50:14;;;;;;;8.10;2.40;;;7.60;99.90;;;;;;5087933;28;20735;-79
2022/01/21 13:52:45;;;;;;;11.90;1.83;;;7.60;99.90;;;;;;5086809;28;20238;-79
2022/01/21 13:55:29;;;;;;;13.60;2.50;;;7.60;99.90;;;;;;5084615;28;20738;-79
2022/01/21 13:58:04;;;;;;;14.47;3.00;;;7.50;99.90;;;;;;5086925;28;20227;-79
2022/01/21 14:00:38;;;;;;;12.10;2.40;;;7.50;99.90;;;;;;5089917;28;20579;-81